Time;durP1;ratioP1;P1;durP2;ratioP2;P2;SDS_P1;SDS_P2;PMS_P1;PMS_P2;Temp;Humidity;BMP_temperature;BMP_pressure;BME280_temperature;BME280_humidity;BME280_pressure;Samples;Min_cycle;Max_cycle;Signal;HPM_P1;HPM_P2
2021/04/16 00:00:14;;;;;;;2.88;1.80;;;5.40;58.00;4.10;102867.00;;;;5019653;28;20060;-75
2021/04/16 00:02:40;;;;;;;4.75;1.90;;;5.30;57.70;4.00;102867.00;;;;5022423;28;20187;-75
2021/04/16 00:05:07;;;;;;;2.63;1.73;;;5.30;57.60;4.00;102852.00;;;;5020855;28;20144;-75
2021/04/16 00:07:33;;;;;;;4.03;2.10;;;5.30;58.10;4.00;102863.00;;;;5017196;28;20038;-74
2021/04/16 00:10:00;;;;;;;2.45;1.75;;;5.20;58.10;4.00;102860.00;;;;5019232;28;20047;-75
2021/04/16 00:12:26;;;;;;;3.97;1.92;;;5.20;57.90;3.90;102857.00;;;;5015429;28;20167;-75
2021/04/16 00:14:52;;;;;;;7.32;2.10;;;5.20;58.30;3.90;102855.00;;;;5018916;28;20029;-74
2021/04/16 00:17:18;;;;;;;4.95;2.08;;;5.20;58.40;3.90;102857.00;;;;5014930;28;20045;-75
2021/04/16 00:19:44;;;;;;;5.72;1.80;;;5.20;58.50;3.90;102858.00;;;;5022696;28;20052;-74
2021/04/16 00:22:10;;;;;;;2.75;2.05;;;5.10;59.10;3.80;102855.00;;;;5017463;28;20045;-74
2021/04/16 00:24:36;;;;;;;3.70;1.92;;;5.10;59.20;3.80;102854.00;;;;5014289;28;20041;-74
2021/04/16 00:27:02;;;;;;;2.50;1.95;;;5.10;59.00;3.80;102852.00;;;;5017126;28;20883;-74
2021/04/16 00:29:28;;;;;;;4.20;2.08;;;5.10;59.10;3.80;102849.00;;;;5008082;28;20550;-73
2021/04/16 00:31:55;;;;;;;3.17;2.10;;;5.10;59.40;3.80;102851.00;;;;5013588;28;20053;-74
2021/04/16 00:34:24;;;;;;;5.13;1.80;;;5.80;59.40;3.70;102838.00;;;;5022078;28;20679;-74
2021/04/16 00:36:51;;;;;;;3.70;2.20;;;5.00;58.00;3.70;102837.00;;;;5020969;28;20143;-75
2021/04/16 00:39:21;;;;;;;2.47;2.05;;;5.00;59.20;3.70;102833.00;;;;5018870;28;20044;-76
2021/04/16 00:41:48;;;;;;;3.35;1.88;;;4.90;59.30;3.70;102824.00;;;;5017782;28;20045;-75
2021/04/16 00:44:15;;;;;;;3.22;2.00;;;5.00;60.00;3.70;102828.00;;;;5018807;28;20107;-75
2021/04/16 00:47:06;;;;;;;4.70;2.20;;;4.90;60.00;3.60;102815.00;;;;4994037;28;20049;-74
2021/04/16 00:49:38;;;;;;;3.67;2.05;;;4.90;59.30;3.60;102828.00;;;;5011403;28;20176;-75
2021/04/16 00:52:07;;;;;;;3.38;2.10;;;4.90;60.40;3.60;102816.00;;;;5012984;28;20037;-75
2021/04/16 00:54:40;;;;;;;4.30;2.65;;;4.90;59.80;3.60;102812.00;;;;5016600;28;20037;-76
2021/04/16 00:57:10;;;;;;;3.55;2.35;;;4.90;60.00;3.60;102815.00;;;;5023174;28;20069;-74
2021/04/16 00:59:46;;;;;;;3.30;2.28;;;5.80;60.30;3.50;102813.00;;;;5019956;28;20065;-74
2021/04/16 01:02:12;;;;;;;6.88;2.78;;;4.80;60.10;3.50;102805.00;;;;5022610;28;20048;-74
2021/04/16 01:04:38;;;;;;;7.75;3.58;;;4.80;60.10;3.50;102806.00;;;;5017525;28;20038;-75
2021/04/16 01:07:06;;;;;;;3.97;2.45;;;4.80;59.70;3.50;102814.00;;;;5021476;28;20049;-75
2021/04/16 01:09:32;;;;;;;5.60;2.33;;;4.80;60.40;3.50;102805.00;;;;5021262;28;20532;-75
2021/04/16 01:12:02;;;;;;;5.25;2.45;;;4.80;60.90;3.40;102819.00;;;;5022633;28;20052;-75
2021/04/16 01:14:28;;;;;;;4.07;2.30;;;4.80;60.70;3.50;102812.00;;;;5022498;28;20072;-75
2021/04/16 01:16:54;;;;;;;4.60;2.45;;;4.80;61.40;3.40;102804.00;;;;5020598;28;20056;-75
2021/04/16 01:20:06;;;;;;;4.28;2.67;;;4.70;61.50;3.40;102810.00;;;;5015250;28;20050;-75
2021/04/16 01:22:55;;;;;;;4.50;2.67;;;4.70;60.90;3.40;102802.00;;;;5016155;28;20053;-75
2021/04/16 01:25:23;;;;;;;4.95;2.40;;;4.70;60.80;3.30;102793.00;;;;5018054;28;20052;-75
2021/04/16 01:27:49;;;;;;;4.13;2.30;;;4.70;61.60;3.30;102794.00;;;;5015543;28;20041;-75
2021/04/16 01:30:23;;;;;;;6.78;2.22;;;4.60;61.70;3.30;102803.00;;;;5015695;28;20053;-75
2021/04/16 01:32:51;;;;;;;3.95;2.42;;;4.70;61.50;3.30;102787.00;;;;5016901;28;20045;-75
2021/04/16 01:35:24;;;;;;;4.13;2.30;;;4.60;62.00;3.30;102800.00;;;;5030026;28;21809;-75
2021/04/16 01:37:50;;;;;;;4.32;2.33;;;4.60;62.10;3.30;102796.00;;;;5011807;28;20137;-74
2021/04/16 01:40:20;;;;;;;6.47;2.67;;;8.10;64.20;3.30;102800.00;;;;5018704;28;20052;-75
2021/04/16 01:42:46;;;;;;;4.03;2.65;;;4.60;62.40;3.30;102797.00;;;;5012176;28;20102;-75
2021/04/16 01:45:24;;;;;;;4.63;2.53;;;4.60;62.50;3.30;102796.00;;;;5019004;28;20107;-73
2021/04/16 01:47:59;;;;;;;8.77;2.40;;;4.50;63.30;3.20;102802.00;;;;5017721;28;20045;-74
2021/04/16 01:50:26;;;;;;;4.20;2.80;;;4.50;62.70;3.20;102804.00;;;;5017580;28;20757;-74
2021/04/16 01:52:52;;;;;;;;;;;4.40;62.40;3.10;102797.00;;;;5021375;28;20075;-75
2021/04/16 01:55:20;;;;;;;6.53;2.50;;;4.50;63.70;3.10;102796.00;;;;5015370;28;20304;-76
2021/04/16 01:57:47;;;;;;;;;;;4.50;61.90;3.10;102800.00;;;;5007903;28;20056;-73
2021/04/16 02:00:28;;;;;;;4.43;2.60;;;4.50;62.80;3.10;102797.00;;;;5021107;28;20358;-74
2021/04/16 02:02:54;;;;;;;5.00;2.85;;;4.40;62.40;3.10;102796.00;;;;5010293;28;20081;-73
2021/04/16 02:05:21;;;;;;;5.70;2.80;;;4.40;62.80;3.10;102787.00;;;;5013774;28;20136;-74
2021/04/16 02:07:46;;;;;;;4.85;2.58;;;4.40;63.40;3.00;102774.00;;;;5012364;28;20080;-75
2021/04/16 02:10:13;;;;;;;4.93;2.78;;;4.40;63.20;3.00;102794.00;;;;5017212;28;20073;-75
2021/04/16 02:12:39;;;;;;;6.23;3.00;;;4.30;63.90;3.00;102785.00;;;;4997681;28;20045;-75
2021/04/16 02:15:07;;;;;;;6.55;3.00;;;4.30;63.60;3.00;102790.00;;;;5021706;28;20368;-75
2021/04/16 02:17:34;;;;;;;5.03;2.55;;;4.30;63.00;3.00;102797.00;;;;5019110;28;20435;-75
2021/04/16 02:20:09;;;;;;;5.90;2.63;;;6.00;64.10;2.90;102795.00;;;;5016271;28;20152;-76
2021/04/16 02:22:35;;;;;;;5.57;2.55;;;4.90;64.50;2.90;102792.00;;;;5023995;28;20041;-75
2021/04/16 02:25:02;;;;;;;6.28;2.85;;;4.30;65.20;2.90;102788.00;;;;5014701;28;20140;-75
2021/04/16 02:27:28;;;;;;;5.57;2.92;;;4.30;64.40;2.90;102795.00;;;;5019216;28;20045;-75
2021/04/16 02:29:56;;;;;;;3.47;2.53;;;4.20;64.20;2.90;102795.00;;;;5020021;28;20046;-75
2021/04/16 02:32:22;;;;;;;4.47;2.83;;;4.20;64.40;2.90;102799.00;;;;5018696;28;20041;-75
2021/04/16 02:34:49;;;;;;;8.50;2.87;;;4.20;63.90;2.90;102796.00;;;;5016930;28;20053;-75
2021/04/16 02:37:18;;;;;;;5.87;2.67;;;4.20;64.10;2.90;102793.00;;;;5013786;28;20113;-75
2021/04/16 02:39:44;;;;;;;4.22;2.65;;;4.20;64.30;2.90;102799.00;;;;5007805;28;20455;-74
2021/04/16 02:42:11;;;;;;;4.87;2.77;;;4.20;65.20;2.90;102789.00;;;;5020360;28;20069;-75
2021/04/16 02:44:37;;;;;;;7.45;2.92;;;4.20;65.90;2.90;102795.00;;;;5020670;28;20053;-75
2021/04/16 02:47:06;;;;;;;4.43;2.92;;;4.20;65.50;2.90;102791.00;;;;5035881;28;20133;-75
2021/04/16 02:49:33;;;;;;;6.80;3.10;;;4.20;66.50;2.90;102796.00;;;;5016870;28;20041;-75
2021/04/16 02:52:00;;;;;;;5.50;3.22;;;4.20;65.10;2.80;102790.00;;;;5021398;28;20052;-75
2021/04/16 02:54:25;;;;;;;6.35;2.80;;;3.90;65.70;2.80;102798.00;;;;5028689;28;20038;-76
2021/04/16 02:56:51;;;;;;;6.10;2.80;;;4.10;67.20;2.80;102792.00;;;;5033338;28;20029;-74
2021/04/16 02:59:22;;;;;;;7.78;2.90;;;4.10;66.60;2.80;102783.00;;;;5007591;28;20083;-75
2021/04/16 03:01:49;;;;;;;10.07;3.38;;;4.20;66.00;2.80;102793.00;;;;5021177;28;20038;-74
2021/04/16 03:04:16;;;;;;;7.28;3.15;;;4.10;66.60;2.80;102787.00;;;;5037004;28;20064;-76
2021/04/16 03:06:42;;;;;;;8.03;2.70;;;4.10;66.40;2.80;102795.00;;;;5032472;28;20049;-74
2021/04/16 03:09:09;;;;;;;6.10;3.28;;;4.10;66.20;2.80;102783.00;;;;5031229;28;20049;-75
2021/04/16 03:11:35;;;;;;;11.73;3.42;;;4.10;67.50;2.80;102790.00;;;;5017509;28;20528;-75
2021/04/16 03:14:02;;;;;;;8.60;3.72;;;4.10;66.30;2.80;102782.00;;;;5016160;28;20033;-74
2021/04/16 03:16:28;;;;;;;;;;;4.10;66.30;2.70;102795.00;;;;5016981;28;20041;-75
2021/04/16 03:18:58;;;;;;;6.40;3.00;;;4.00;70.30;2.70;102785.00;;;;5011181;28;19938;-74
2021/04/16 03:21:25;;;;;;;7.78;3.70;;;4.10;67.50;2.70;102789.00;;;;5021092;28;20052;-74
2021/04/16 03:23:51;;;;;;;6.60;3.20;;;4.10;66.70;2.80;102791.00;;;;5014453;28;20100;-75
2021/04/16 03:26:18;;;;;;;7.18;3.50;;;4.10;67.60;2.80;102787.00;;;;4998621;28;20061;-75
2021/04/16 03:28:45;;;;;;;9.40;3.50;;;4.90;67.20;2.70;102790.00;;;;5023120;28;20046;-75
2021/04/16 03:31:12;;;;;;;5.97;3.63;;;4.10;68.90;2.70;102765.00;;;;5021397;28;20054;-75
2021/04/16 03:33:38;;;;;;;8.48;3.55;;;4.10;67.90;2.70;102776.00;;;;5023413;28;20609;-75
2021/04/16 03:36:05;;;;;;;7.43;3.60;;;4.10;67.90;2.70;102776.00;;;;5020420;28;20056;-75
2021/04/16 03:38:31;;;;;;;6.40;3.57;;;4.10;68.20;2.70;102779.00;;;;5023785;28;20095;-75
2021/04/16 03:40:57;;;;;;;6.80;3.63;;;4.10;69.00;2.70;102778.00;;;;5020229;28;20048;-75
2021/04/16 03:43:23;;;;;;;11.75;4.00;;;4.00;68.70;2.70;102771.00;;;;5015773;28;20037;-76
2021/04/16 03:45:49;;;;;;;7.40;3.42;;;4.10;67.90;2.70;102781.00;;;;5002214;28;20045;-75
2021/04/16 03:48:15;;;;;;;11.75;3.53;;;4.00;67.50;2.70;102780.00;;;;5014741;28;20683;-75
2021/04/16 03:50:41;;;;;;;8.20;3.67;;;4.00;67.60;2.70;102780.00;;;;5015486;28;20037;-75
2021/04/16 03:53:08;;;;;;;5.47;3.45;;;4.00;68.60;2.70;102783.00;;;;5014302;28;20056;-75
2021/04/16 03:55:37;;;;;;;7.60;3.55;;;4.00;68.50;2.70;102794.00;;;;5004086;28;20159;-75
2021/04/16 03:58:05;;;;;;;6.53;4.07;;;4.00;68.50;2.60;102774.00;;;;5021087;28;20045;-75
2021/04/16 04:00:34;;;;;;;7.95;4.15;;;4.00;69.40;2.60;102783.00;;;;5028461;28;20069;-75
2021/04/16 04:03:01;;;;;;;8.88;3.70;;;4.00;69.00;2.60;102785.00;;;;5014142;28;20076;-75
2021/04/16 04:05:27;;;;;;;7.60;4.03;;;3.90;67.10;2.60;102779.00;;;;5001664;28;20045;-76
2021/04/16 04:07:54;;;;;;;8.60;4.05;;;4.00;69.50;2.60;102776.00;;;;5025540;28;20064;-75
2021/04/16 04:10:22;;;;;;;9.45;3.95;;;3.90;68.50;2.60;102782.00;;;;5006613;28;20069;-74
2021/04/16 04:12:49;;;;;;;9.80;4.32;;;3.90;68.60;2.60;102782.00;;;;5020857;28;20570;-74
2021/04/16 04:15:17;;;;;;;11.07;4.23;;;3.90;68.80;2.60;102788.00;;;;5039136;28;20140;-74
2021/04/16 04:17:43;;;;;;;7.25;4.03;;;3.90;69.00;2.60;102782.00;;;;5026701;28;20848;-74
2021/04/16 04:20:17;;;;;;;8.90;4.40;;;3.90;69.50;2.60;102784.00;;;;5016436;28;20041;-74
2021/04/16 04:22:43;;;;;;;9.30;4.40;;;3.90;68.70;2.50;102775.00;;;;5002364;28;20041;-75
2021/04/16 04:25:10;;;;;;;10.02;4.63;;;3.90;70.20;2.50;102776.00;;;;5019887;28;20041;-75
2021/04/16 04:27:35;;;;;;;9.98;4.32;;;3.90;70.80;2.50;102770.00;;;;5025864;28;20080;-75
2021/04/16 04:30:04;;;;;;;8.25;4.13;;;3.80;69.40;2.50;102776.00;;;;5007083;28;20106;-75
2021/04/16 04:32:30;;;;;;;6.72;4.10;;;3.80;70.20;2.50;102770.00;;;;5020777;28;20068;-76
2021/04/16 04:34:56;;;;;;;8.13;4.40;;;3.90;70.10;2.50;102775.00;;;;5022615;28;20042;-75
2021/04/16 04:37:22;;;;;;;8.65;4.97;;;3.80;69.50;2.50;102777.00;;;;5018239;28;20056;-75
2021/04/16 04:39:48;;;;;;;9.10;4.40;;;3.80;69.10;2.50;102773.00;;;;5019759;28;20793;-75
2021/04/16 04:42:15;;;;;;;9.85;4.35;;;3.80;70.80;2.50;102782.00;;;;4996298;28;20659;-75
2021/04/16 04:44:41;;;;;;;13.48;4.80;;;3.80;70.20;2.50;102787.00;;;;5021552;28;20113;-74
2021/04/16 04:47:08;;;;;;;14.70;5.70;;;3.80;70.50;2.50;102769.00;;;;5019700;28;20052;-75
2021/04/16 04:49:36;;;;;;;8.57;4.53;;;7.70;72.70;2.50;102772.00;;;;5022676;28;20052;-75
2021/04/16 04:52:15;;;;;;;12.32;4.93;;;5.20;71.90;2.40;102775.00;;;;5017518;28;20048;-76
2021/04/16 04:54:49;;;;;;;9.70;4.18;;;3.80;70.50;2.40;102776.00;;;;5024913;28;20053;-76
2021/04/16 04:57:17;;;;;;;12.45;4.95;;;3.80;69.90;2.50;102767.00;;;;5015726;28;20633;-75
2021/04/16 04:59:44;;;;;;;11.23;4.75;;;3.80;69.80;2.50;102773.00;;;;5019946;28;20065;-75
2021/04/16 05:02:11;;;;;;;9.10;4.72;;;3.80;72.20;2.50;102773.00;;;;5004530;28;20056;-75
2021/04/16 05:04:37;;;;;;;12.25;5.22;;;3.80;71.20;2.50;102770.00;;;;5021934;28;20073;-75
2021/04/16 05:07:03;;;;;;;10.50;4.55;;;3.80;71.10;2.50;102784.00;;;;5019032;28;20110;-75
2021/04/16 05:09:29;;;;;;;10.27;4.53;;;3.80;71.80;2.50;102769.00;;;;5021024;28;20045;-76
2021/04/16 05:11:55;;;;;;;10.05;4.65;;;3.80;71.50;2.50;102778.00;;;;5019384;28;20056;-76
2021/04/16 05:14:22;;;;;;;8.32;4.63;;;4.10;71.60;2.60;102781.00;;;;5021806;28;20092;-76
2021/04/16 05:16:48;;;;;;;11.18;5.15;;;6.90;73.20;2.50;102777.00;;;;5018176;28;20436;-76
2021/04/16 05:19:14;;;;;;;9.75;4.65;;;3.90;72.30;2.50;102788.00;;;;5021729;28;20049;-75
2021/04/16 05:21:40;;;;;;;8.73;5.00;;;3.80;70.50;2.60;102791.00;;;;5016262;28;20552;-76
2021/04/16 05:24:07;;;;;;;7.88;5.13;;;3.90;71.50;2.60;102791.00;;;;5016811;28;20034;-75
2021/04/16 05:26:34;;;;;;;;;;;3.90;72.00;2.50;102789.00;;;;5021605;28;20043;-75
2021/04/16 05:29:00;;;;;;;14.65;5.20;;;3.80;73.90;2.60;102789.00;;;;5019815;28;20394;-74
2021/04/16 05:31:27;;;;;;;13.07;5.43;;;3.90;70.90;2.60;102794.00;;;;5031938;28;20041;-77
2021/04/16 05:33:53;;;;;;;10.70;5.35;;;3.90;71.40;2.60;102800.00;;;;5023442;28;20055;-76
2021/04/16 05:36:20;;;;;;;12.57;5.30;;;3.90;71.90;2.60;102788.00;;;;5001177;28;20039;-76
2021/04/16 05:38:46;;;;;;;9.98;4.90;;;4.00;72.20;2.70;102788.00;;;;5021225;28;20048;-76
2021/04/16 05:41:12;;;;;;;12.32;5.40;;;3.90;71.70;2.70;102791.00;;;;5019643;28;20044;-76
2021/04/16 05:43:38;;;;;;;8.60;4.82;;;3.90;71.00;2.70;102791.00;;;;5017109;28;20037;-76
2021/04/16 05:46:05;;;;;;;10.13;5.40;;;4.00;71.40;2.70;102787.00;;;;5014105;28;20412;-75
2021/04/16 05:48:31;;;;;;;8.30;5.45;;;4.00;72.30;2.80;102788.00;;;;5020220;28;20037;-75
2021/04/16 05:50:57;;;;;;;10.45;5.30;;;4.00;71.90;2.90;102792.00;;;;5018734;28;20107;-76
2021/04/16 05:53:23;;;;;;;9.10;5.13;;;4.10;72.20;2.90;102788.00;;;;5020219;28;20052;-75
2021/04/16 05:55:49;;;;;;;8.15;5.32;;;4.10;72.10;2.90;102793.00;;;;5027239;28;20046;-75
2021/04/16 05:58:15;;;;;;;11.00;5.05;;;4.20;71.60;3.00;102780.00;;;;5016801;28;20041;-75
2021/04/16 06:00:41;;;;;;;8.75;5.22;;;4.20;72.30;3.10;102781.00;;;;5014680;28;20501;-76
2021/04/16 06:03:08;;;;;;;12.38;5.53;;;4.30;71.70;3.10;102789.00;;;;5021310;28;20047;-75
2021/04/16 06:05:35;;;;;;;10.05;5.55;;;4.30;72.10;3.10;102786.00;;;;5016903;28;20049;-75
2021/04/16 06:08:00;;;;;;;9.05;5.15;;;4.40;72.30;3.10;102788.00;;;;5018147;28;20077;-79
2021/04/16 06:10:26;;;;;;;10.90;5.25;;;4.30;71.90;3.10;102801.00;;;;5000261;28;20128;-79
2021/04/16 06:12:52;;;;;;;12.32;5.20;;;4.40;71.00;3.10;102797.00;;;;5024091;28;20152;-78
2021/04/16 06:15:24;;;;;;;7.78;4.93;;;4.40;72.40;3.10;102798.00;;;;5014481;28;20120;-79
2021/04/16 06:17:50;;;;;;;9.68;5.07;;;6.30;73.20;3.20;102805.00;;;;5016237;28;20649;-79
2021/04/16 06:20:20;;;;;;;9.38;5.05;;;4.50;72.00;3.30;102794.00;;;;5010042;28;20029;-78
2021/04/16 06:22:50;;;;;;;19.40;5.40;;;4.50;71.50;3.40;102802.00;;;;5019047;28;20102;-78
2021/04/16 06:25:22;;;;;;;7.70;4.72;;;4.60;72.40;3.60;102800.00;;;;5019272;28;20057;-78
2021/04/16 06:27:48;;;;;;;10.75;5.00;;;4.70;71.90;3.70;102805.00;;;;5000118;28;20049;-77
2021/04/16 06:30:18;;;;;;;9.10;4.90;;;4.80;72.00;4.00;102806.00;;;;5015149;28;20049;-77
2021/04/16 06:32:44;;;;;;;12.30;4.75;;;5.00;71.50;4.30;102802.00;;;;5016009;28;20168;-78
2021/04/16 06:35:15;;;;;;;12.50;5.53;;;5.30;71.50;4.50;102806.00;;;;5016037;28;20044;-77
2021/04/16 06:37:42;;;;;;;8.20;4.55;;;5.60;70.10;4.70;102807.00;;;;5018775;28;20100;-73
2021/04/16 06:40:12;;;;;;;8.63;4.07;;;5.60;70.80;4.90;102819.00;;;;5012762;28;20045;-75
2021/04/16 06:42:38;;;;;;;8.93;4.53;;;5.80;70.60;5.00;102808.00;;;;5019616;28;20041;-77
2021/04/16 06:45:13;;;;;;;8.63;4.63;;;5.90;69.60;5.20;102820.00;;;;5020283;28;20475;-76
2021/04/16 06:48:01;;;;;;;5.60;3.90;;;6.10;69.10;5.20;102825.00;;;;5017548;28;20050;-76
2021/04/16 06:50:36;;;;;;;7.47;4.15;;;6.30;67.90;5.30;102814.00;;;;5035043;28;20053;-76
2021/04/16 06:53:53;;;;;;;7.68;4.00;;;6.30;68.50;5.50;102810.00;;;;5017799;28;20152;-76
2021/04/16 06:56:35;;;;;;;7.82;4.38;;;6.50;67.00;5.60;102816.00;;;;5020908;28;20037;-76
2021/04/16 06:59:20;;;;;;;9.52;4.47;;;7.20;68.10;5.70;102823.00;;;;5021485;28;20132;-75
2021/04/16 07:01:55;;;;;;;12.48;4.32;;;6.70;67.20;5.60;102825.00;;;;5019246;28;20045;-75
2021/04/16 07:04:52;;;;;;;8.98;3.75;;;6.60;67.00;5.40;102822.00;;;;5021867;28;20072;-75
2021/04/16 07:07:41;;;;;;;5.53;3.85;;;6.50;67.10;5.40;102824.00;;;;5019382;28;20069;-75
2021/04/16 07:10:29;;;;;;;11.70;4.65;;;6.50;67.30;5.40;102817.00;;;;5023781;28;20033;-75
2021/04/16 07:13:01;;;;;;;9.02;4.63;;;6.50;66.20;5.40;102815.00;;;;5025585;28;20053;-74
2021/04/16 07:15:41;;;;;;;12.30;4.75;;;6.50;67.20;5.50;102831.00;;;;5022608;28;20080;-76
2021/04/16 07:18:11;;;;;;;7.32;3.80;;;6.60;67.20;5.50;102823.00;;;;5026350;28;20083;-76
2021/04/16 07:20:37;;;;;;;10.48;4.20;;;6.60;67.10;5.60;102821.00;;;;5023789;28;20532;-76
2021/04/16 07:23:03;;;;;;;8.15;3.88;;;6.70;67.00;5.80;102824.00;;;;5018962;28;20110;-75
2021/04/16 07:25:35;;;;;;;5.32;3.75;;;6.80;67.10;5.90;102826.00;;;;5022329;28;20044;-75
2021/04/16 07:28:09;;;;;;;7.47;3.72;;;6.70;66.50;6.00;102815.00;;;;5019653;28;20083;-76
2021/04/16 07:30:40;;;;;;;9.10;3.85;;;7.00;66.50;6.30;102814.00;;;;5017912;28;20153;-75
2021/04/16 07:33:44;;;;;;;7.45;3.03;;;7.20;66.20;6.50;102822.00;;;;5020865;28;20045;-76
2021/04/16 07:36:38;;;;;;;5.85;3.70;;;7.40;63.40;6.70;102816.00;;;;4973277;28;20070;-76
2021/04/16 07:39:12;;;;;;;9.32;3.53;;;7.60;64.10;6.90;102830.00;;;;4955313;28;20065;-76
2021/04/16 07:41:55;;;;;;;5.35;3.20;;;7.70;63.80;6.90;102820.00;;;;5003515;28;20052;-74
2021/04/16 07:44:34;;;;;;;9.30;3.20;;;7.80;63.20;7.00;102824.00;;;;5022052;28;20100;-74
2021/04/16 07:47:05;;;;;;;6.25;3.03;;;7.90;63.30;7.20;102816.00;;;;5019431;28;20048;-75
2021/04/16 07:49:36;;;;;;;4.88;3.15;;;8.00;63.50;7.30;102818.00;;;;5016051;28;20048;-73
2021/04/16 07:52:35;;;;;;;5.82;3.05;;;8.30;63.40;7.40;102821.00;;;;5019451;28;20045;-74
2021/04/16 07:55:23;;;;;;;5.53;3.00;;;8.20;62.40;7.60;102817.00;;;;5024259;28;20033;-75
2021/04/16 07:57:52;;;;;;;7.30;3.50;;;8.40;62.90;7.70;102827.00;;;;5025579;28;20049;-71
2021/04/16 08:00:26;;;;;;;5.70;3.30;;;8.50;62.20;7.90;102821.00;;;;5022688;28;20519;-71
2021/04/16 08:03:15;;;;;;;5.55;2.67;;;8.70;61.00;7.90;102831.00;;;;5021934;28;20208;-70
2021/04/16 08:05:47;;;;;;;7.20;3.20;;;8.70;61.20;8.00;102825.00;;;;4996562;28;20042;-70
2021/04/16 08:08:44;;;;;;;6.13;3.63;;;8.90;61.60;8.20;102832.00;;;;5013108;28;20044;-71
2021/04/16 08:11:16;;;;;;;6.35;4.20;;;8.60;60.30;8.30;102827.00;;;;5020848;28;20049;-71
2021/04/16 08:13:42;;;;;;;6.47;3.85;;;9.20;61.40;8.50;102829.00;;;;5011648;28;20484;-71
2021/04/16 08:16:20;;;;;;;4.80;3.53;;;9.20;63.70;8.60;102831.00;;;;5039446;28;20052;-70
2021/04/16 08:19:10;;;;;;;8.82;3.83;;;9.30;62.50;8.70;102822.00;;;;5025140;28;20140;-70
2021/04/16 08:21:46;;;;;;;5.88;3.10;;;9.40;58.20;8.70;102821.00;;;;5002237;28;20045;-70
2021/04/16 08:24:48;;;;;;;6.00;3.22;;;9.80;61.00;8.80;102817.00;;;;5034967;28;20625;-70
2021/04/16 08:27:45;;;;;;;5.25;3.15;;;9.60;57.20;8.80;102831.00;;;;5019931;28;20037;-70
2021/04/16 08:30:45;;;;;;;8.48;3.22;;;9.60;57.60;8.90;102823.00;;;;5020583;28;20037;-71
2021/04/16 08:33:37;;;;;;;7.13;3.72;;;9.60;55.10;8.80;102820.00;;;;5019360;28;20048;-71
2021/04/16 08:36:33;;;;;;;5.45;2.83;;;9.70;58.40;9.00;102818.00;;;;5012741;28;20045;-72
2021/04/16 08:39:06;;;;;;;5.90;2.72;;;9.80;54.20;9.10;102823.00;;;;5021179;28;20034;-71
2021/04/16 08:41:52;;;;;;;4.78;2.97;;;9.90;56.00;9.30;102820.00;;;;5021555;28;20947;-70
2021/04/16 08:44:19;;;;;;;6.50;3.13;;;10.10;56.50;9.50;102822.00;;;;5001743;28;20129;-72
2021/04/16 08:46:52;;;;;;;3.83;2.88;;;10.20;56.30;9.50;102825.00;;;;4999121;28;20049;-71
2021/04/16 08:49:35;;;;;;;4.05;2.67;;;10.70;58.10;9.60;102824.00;;;;5019713;28;20061;-70
2021/04/16 08:52:17;;;;;;;2.70;1.90;;;11.30;57.00;9.70;102829.00;;;;5018206;28;20052;-71
2021/04/16 08:54:48;;;;;;;5.70;2.30;;;10.40;50.80;9.60;102833.00;;;;5013514;28;20108;-71
2021/04/16 08:57:30;;;;;;;3.50;2.40;;;10.40;55.00;9.50;102824.00;;;;5018285;28;20055;-71
2021/04/16 09:00:19;;;;;;;3.85;2.20;;;10.40;53.90;9.50;102824.00;;;;5035302;28;20049;-71
2021/04/16 09:02:51;;;;;;;5.78;2.55;;;10.30;50.70;9.70;102819.00;;;;5003453;28;20048;-70
2021/04/16 09:05:32;;;;;;;5.53;2.70;;;10.40;55.00;9.90;102827.00;;;;5023385;28;20034;-71
2021/04/16 09:08:06;;;;;;;3.05;1.90;;;10.60;55.10;10.00;102832.00;;;;5006602;28;20399;-71
2021/04/16 09:11:02;;;;;;;2.17;1.70;;;10.70;51.10;10.00;102819.00;;;;5019391;28;20041;-72
2021/04/16 09:13:41;;;;;;;3.85;1.95;;;10.80;51.40;10.10;102813.00;;;;4992892;28;20053;-72
2021/04/16 09:16:18;;;;;;;3.53;2.30;;;10.90;53.10;10.20;102819.00;;;;5019947;28;20512;-71
2021/04/16 09:18:51;;;;;;;2.70;1.90;;;10.90;52.30;10.30;102818.00;;;;5002231;28;20045;-71
2021/04/16 09:21:30;;;;;;;4.10;1.65;;;11.10;52.80;10.10;102811.00;;;;5000405;28;20033;-71
2021/04/16 09:24:10;;;;;;;3.67;2.00;;;11.00;48.50;10.00;102816.00;;;;5020136;28;20055;-71
2021/04/16 09:26:47;;;;;;;3.70;2.00;;;10.90;50.70;10.10;102815.00;;;;5018508;28;20122;-69
2021/04/16 09:29:38;;;;;;;3.45;2.13;;;10.90;52.00;10.20;102820.00;;;;5025308;28;20049;-72
2021/04/16 09:32:32;;;;;;;2.40;1.63;;;11.10;49.60;10.20;102810.00;;;;5013445;28;20046;-72
2021/04/16 09:34:59;;;;;;;3.83;1.80;;;11.00;50.40;10.30;102824.00;;;;5020780;28;20033;-72
2021/04/16 09:37:33;;;;;;;3.00;2.00;;;11.10;49.10;10.40;102820.00;;;;5018893;28;20049;-73
2021/04/16 09:40:22;;;;;;;4.70;2.45;;;11.10;50.50;10.50;102809.00;;;;5019707;28;20136;-72
2021/04/16 09:43:17;;;;;;;4.93;2.33;;;11.30;49.90;10.60;102803.00;;;;5019481;28;20061;-73
2021/04/16 09:45:47;;;;;;;6.65;2.30;;;11.30;46.10;10.50;102799.00;;;;5020468;28;20423;-71
2021/04/16 09:48:18;;;;;;;3.58;2.10;;;11.20;50.00;10.70;102799.00;;;;5006024;28;20040;-72
2021/04/16 09:50:46;;;;;;;4.57;1.80;;;11.40;51.00;10.80;102802.00;;;;5021333;28;20045;-72
2021/04/16 09:53:28;;;;;;;5.32;2.22;;;11.50;51.20;10.80;102804.00;;;;5021767;28;20095;-71
2021/04/16 09:56:00;;;;;;;2.45;1.92;;;11.60;47.40;10.90;102795.00;;;;4985464;28;20568;-72
2021/04/16 09:58:32;;;;;;;2.85;1.63;;;11.70;49.60;11.00;102799.00;;;;5019510;28;20049;-72
2021/04/16 10:00:59;;;;;;;3.35;1.65;;;11.70;49.20;11.10;102796.00;;;;5016463;28;20407;-71
2021/04/16 10:03:59;;;;;;;2.65;1.70;;;11.80;48.20;11.00;102797.00;;;;5018321;28;20681;-72
2021/04/16 10:06:37;;;;;;;2.75;1.80;;;11.80;49.00;11.10;102802.00;;;;5017698;28;20041;-71
2021/04/16 10:09:07;;;;;;;2.80;1.80;;;11.80;49.00;11.10;102802.00;;;;5000393;28;20041;-72
2021/04/16 10:11:34;;;;;;;3.25;1.40;;;11.80;43.00;11.00;102788.00;;;;4998272;28;20086;-72
2021/04/16 10:14:35;;;;;;;3.80;1.55;;;11.80;45.70;11.10;102792.00;;;;5014305;28;20068;-72
2021/04/16 10:17:16;;;;;;;2.53;1.83;;;11.90;47.10;11.10;102791.00;;;;4974208;28;20570;-73
2021/04/16 10:20:16;;;;;;;2.97;1.70;;;12.00;46.40;11.20;102790.00;;;;5018386;28;20168;-73
2021/04/16 10:22:42;;;;;;;6.30;1.90;;;12.00;45.40;11.20;102782.00;;;;5017395;28;20065;-72
2021/04/16 12:38:59;;;;;;;2.80;1.83;;;14.20;39.60;13.60;102676.00;;;;5021348;28;20041;-75
2021/04/16 12:41:32;;;;;;;5.10;2.15;;;14.30;41.90;13.60;102679.00;;;;5021495;28;20046;-75
2021/04/16 12:43:59;;;;;;;2.15;1.55;;;14.30;41.90;13.40;102687.00;;;;5018357;28;20034;-75
2021/04/16 12:46:33;;;;;;;2.88;1.50;;;14.30;38.50;13.10;102685.00;;;;5003508;28;20041;-75
2021/04/16 12:48:59;;;;;;;2.67;1.48;;;14.00;38.40;13.00;102685.00;;;;5023118;28;20562;-74
2021/04/16 12:51:25;;;;;;;2.50;1.35;;;13.90;38.60;12.90;102677.00;;;;5023137;28;20132;-74
2021/04/16 12:53:51;;;;;;;2.35;1.40;;;13.70;37.20;12.70;102678.00;;;;5021503;28;20044;-75
2021/04/16 12:56:22;;;;;;;1.42;1.23;;;13.60;37.60;12.50;102686.00;;;;5018842;28;20053;-73
2021/04/16 12:58:48;;;;;;;1.83;1.42;;;13.50;38.00;12.50;102693.00;;;;5022326;28;20042;-74
2021/04/16 13:01:29;;;;;;;3.38;1.50;;;13.30;34.50;12.30;102682.00;;;;5022302;28;20047;-74
2021/04/16 13:03:56;;;;;;;4.38;1.63;;;13.20;37.20;12.20;102682.00;;;;5002824;28;20055;-74
2021/04/16 13:06:32;;;;;;;1.40;1.30;;;13.40;38.50;12.40;102700.00;;;;5022763;28;20034;-73
2021/04/16 13:08:58;;;;;;;6.05;1.80;;;13.20;36.00;12.60;102693.00;;;;5016434;28;20091;-75
2021/04/16 13:11:27;;;;;;;3.67;1.67;;;13.30;36.00;12.70;102679.00;;;;5018435;28;20057;-75
2021/04/16 13:13:55;;;;;;;3.17;1.70;;;13.40;38.60;12.70;102676.00;;;;5020315;28;20641;-74
2021/04/16 13:16:22;;;;;;;2.20;1.45;;;13.50;36.60;12.90;102678.00;;;;5004652;28;20069;-73
2021/04/16 13:18:54;;;;;;;2.15;1.30;;;;;13.10;102677.00;;;;5023863;28;20053;-74
2021/04/16 13:21:34;;;;;;;1.58;1.30;;;13.80;36.60;13.40;102677.00;;;;5004478;28;20037;-74
2021/04/16 13:24:02;;;;;;;3.58;1.67;;;14.30;34.30;13.40;102669.00;;;;5018927;28;20041;-74
2021/04/16 13:26:28;;;;;;;2.05;1.50;;;14.10;36.70;13.50;102668.00;;;;5018984;28;20199;-74
2021/04/16 13:28:55;;;;;;;7.50;1.95;;;14.20;36.80;13.70;102664.00;;;;5023205;28;20042;-74
2021/04/16 13:31:25;;;;;;;4.85;1.48;;;14.50;34.60;13.80;102667.00;;;;5025602;28;20074;-74
2021/04/16 13:33:51;;;;;;;2.53;1.20;;;14.50;36.80;13.90;102672.00;;;;5004795;28;20034;-75